Caviahue, Argentina
Current Conditions -  °F | °C
As of 12:00 PM on Sunday 21 Dec 2014 (Local Time) from SCQP Reporting Station
Broken Clouds Broken Clouds  
Wind Chill: 57°   Ceiling: 4500
Heat Index: 57°   Visibility: 6mi
Dew Point: 37°   Wind: 10mph
Humidity: 48%   Direction: 170°S
Pressure: 30.21"   Gusts: NA
Location:  37.85°S, 71.01°W
Report Text: SCQP 211500Z 17009KT 140V210 9999 BKN045 14/03 Q1023
Loading
Personal Weather Stations






























Interactive Weather Map New forecast layout! Learn more

10-Day Weather Forecast

Advertisements
Track Severe Weather on mobile